»·PEaware :: UAL3612 KJAC-KSLC

UAL3612 :: KJAC-KSLC

FLIGHT INFORMATION

Flight Status: Arrived
Operator:
United Airlines
More flights by this operator :: More flights under this callsign
Pilot: Sergei F. (8485)
Aircraft: BOEING 737-600
(B736)
More flights by this aircraft type
Origin: KJAC Jackson Hole
United States
Destination: KSLC Salt Lake City Intl
United States
More flights between these airports :: More routes between these airports
Route: ALPIN3 KICNE LHO NORDK6
File this flight plan on PilotEdge
Remarks:
Altitude:
(Current/Filed)
32,000ft
Speed:
(Current/Filed)
466kts
Departed: 20-Aug-22 08:04 PM
Arrived: 20-Aug-22 08:39 PM
Distance/Time
Traveled:
178nm/0:35
Distance/Time
To Go:
Arrived

Flight Plot

Page will automatically refresh every two minutes.

Flight plan parsing failed; only flown route is shown


Map Options




Map Legend


Flown Route
Filed Route
Departure Airport
Arrival Airport
Navaid (VOR, NDB)
Fix

Horizontal Profiles

Position Reports

Time Latitude Longitude Heading Altitude Ground
Speed
20-Aug-22 19:30 43.604283 -110.736744 109 6423ft 0kts
20-Aug-22 19:31 43.604283 -110.736744 109 6423ft 0kts
20-Aug-22 19:32 43.604283 -110.736744 109 6423ft 0kts
20-Aug-22 19:33 43.604283 -110.736745 109 6423ft 0kts
20-Aug-22 19:34 43.604283 -110.736745 109 6423ft 0kts
20-Aug-22 19:35 43.604334 -110.736947 109 6432ft 1kts
20-Aug-22 19:43 43.604283 -110.736739 109 6432ft 0kts
20-Aug-22 19:44 43.604283 -110.736739 109 6432ft 0kts
20-Aug-22 19:45 43.604283 -110.736739 109 6432ft 0kts
20-Aug-22 19:46 43.604283 -110.736739 109 6432ft 0kts
20-Aug-22 19:47 43.604283 -110.736739 109 6432ft 0kts
20-Aug-22 19:48 43.604283 -110.736739 109 6432ft 0kts
20-Aug-22 19:49 43.604283 -110.736739 109 6432ft 0kts
20-Aug-22 19:50 43.604283 -110.736739 109 6432ft 0kts
20-Aug-22 19:51 43.604283 -110.736739 109 6432ft 0kts
20-Aug-22 19:52 43.604286 -110.736750 109 6432ft 0kts
20-Aug-22 19:53 43.604360 -110.737438 69 6432ft 1kts
20-Aug-22 19:54 43.604159 -110.737718 18 6431ft 0kts
20-Aug-22 19:55 43.604159 -110.737718 18 6431ft 0kts
20-Aug-22 19:56 43.604159 -110.737718 18 6431ft 0kts
20-Aug-22 19:57 43.604160 -110.737718 18 6431ft 0kts
20-Aug-22 19:58 43.606271 -110.736689 19 6432ft 15kts
20-Aug-22 19:59 43.610779 -110.734491 19 6433ft 17kts
20-Aug-22 20:00 43.614048 -110.732891 19 6433ft 6kts
20-Aug-22 20:01 43.615215 -110.733122 288 6437ft 0kts
20-Aug-22 20:02 43.615009 -110.734039 199 6439ft 2kts
20-Aug-22 20:03 43.591085 -110.745866 200 7049ft 171kts
20-Aug-22 20:04 43.550040 -110.775699 210 10045ft 171kts
20-Aug-22 20:05 43.505510 -110.806081 200 12533ft 186kts
20-Aug-22 20:06 43.451542 -110.839507 202 14122ft 249kts
20-Aug-22 20:07 43.376377 -110.887318 202 15944ft 322kts
20-Aug-22 20:08 43.293389 -110.940101 202 19098ft 338kts
20-Aug-22 20:09 43.205584 -110.995853 203 21880ft 355kts
20-Aug-22 20:10 43.114285 -111.053757 203 24430ft 371kts
20-Aug-22 20:11 43.018983 -111.115892 210 26905ft 382kts
20-Aug-22 20:12 42.931202 -111.194150 213 29908ft 374kts
20-Aug-22 20:13 42.840463 -111.265028 207 31843ft 387kts
20-Aug-22 20:14 42.740280 -111.336824 207 32121ft 429kts
20-Aug-22 20:15 42.631089 -111.415485 207 32071ft 455kts
20-Aug-22 20:16 42.519458 -111.495583 207 32065ft 454kts
20-Aug-22 20:17 42.407297 -111.575860 207 32062ft 459kts
20-Aug-22 20:18 42.293175 -111.657181 207 32061ft 463kts
20-Aug-22 20:19 42.179455 -111.737886 207 29910ft 464kts
20-Aug-22 20:20 42.066714 -111.817572 207 27075ft 447kts
20-Aug-22 20:21 41.958439 -111.893815 207 24639ft 433kts
20-Aug-22 20:22 41.853878 -111.967111 207 22479ft 419kts
20-Aug-22 20:23 41.748840 -112.017968 186 19400ft 401kts
20-Aug-22 20:24 41.637666 -112.034034 187 16705ft 398kts
20-Aug-22 20:25 41.531358 -112.050820 187 15101ft 366kts
20-Aug-22 20:26 41.437172 -112.052068 173 14164ft 318kts
20-Aug-22 20:27 41.350201 -112.040646 175 11908ft 307kts
20-Aug-22 20:28 41.266540 -112.041314 181 9979ft 290kts
20-Aug-22 20:29 41.190119 -112.044059 181 8812ft 267kts
20-Aug-22 20:30 41.120718 -112.046251 176 7972ft 227kts
20-Aug-22 20:31 41.062748 -112.037187 172 7594ft 199kts
20-Aug-22 20:32 41.009124 -112.028615 171 7166ft 188kts
20-Aug-22 20:33 40.958033 -112.018941 171 6644ft 184kts
20-Aug-22 20:34 40.908688 -112.010781 174 6007ft 169kts
20-Aug-22 20:35 40.864981 -112.006230 172 5339ft 149kts
20-Aug-22 20:36 40.825151 -112.001322 174 4559ft 142kts
20-Aug-22 20:37 40.791138 -111.997363 175 4235ft 45kts
20-Aug-22 20:38 40.786960 -111.994496 104 4237ft 14kts
20-Aug-22 20:39 40.789228 -111.993980 355 4237ft 14kts
20-Aug-22 20:40 40.791156 -111.991335 84 4233ft 15kts
20-Aug-22 20:41 40.791374 -111.986497 117 4231ft 8kts
20-Aug-22 20:42 40.789372 -111.985614 219 4230ft 5kts
20-Aug-22 20:43 40.789335 -111.985655 221 4231ft 0kts

Navigation Log

Ident Type
Flight plan parsing failed, navigation log unavailable